sensor_id;sensor_type;location;lat;lon;timestamp;temperature;humidity
64888;DHT22;51386;53.082;8.816;2023-06-14T00:00:48;21.80;46.20
64888;DHT22;51386;53.082;8.816;2023-06-14T00:03:15;21.80;46.40
64888;DHT22;51386;53.082;8.816;2023-06-14T00:05:44;21.70;46.50
64888;DHT22;51386;53.082;8.816;2023-06-14T00:08:13;21.70;46.70
64888;DHT22;51386;53.082;8.816;2023-06-14T00:10:42;21.70;46.80
64888;DHT22;51386;53.082;8.816;2023-06-14T00:13:09;21.70;47.00
64888;DHT22;51386;53.082;8.816;2023-06-14T00:15:37;21.70;47.20
64888;DHT22;51386;53.082;8.816;2023-06-14T00:18:05;21.60;47.20
64888;DHT22;51386;53.082;8.816;2023-06-14T00:20:33;21.60;47.40
64888;DHT22;51386;53.082;8.816;2023-06-14T00:23:00;21.60;47.40
64888;DHT22;51386;53.082;8.816;2023-06-14T00:25:28;21.60;47.50
64888;DHT22;51386;53.082;8.816;2023-06-14T00:27:57;21.60;47.70
64888;DHT22;51386;53.082;8.816;2023-06-14T00:30:25;21.60;47.60
64888;DHT22;51386;53.082;8.816;2023-06-14T00:32:57;21.60;47.80
64888;DHT22;51386;53.082;8.816;2023-06-14T00:35:24;21.60;47.90
64888;DHT22;51386;53.082;8.816;2023-06-14T00:37:52;21.50;48.30
64888;DHT22;51386;53.082;8.816;2023-06-14T00:40:21;21.50;48.30
64888;DHT22;51386;53.082;8.816;2023-06-14T00:42:48;21.40;48.60
64888;DHT22;51386;53.082;8.816;2023-06-14T00:45:17;21.30;48.60
64888;DHT22;51386;53.082;8.816;2023-06-14T00:47:46;21.30;48.90
64888;DHT22;51386;53.082;8.816;2023-06-14T00:50:14;21.30;49.20
64888;DHT22;51386;53.082;8.816;2023-06-14T00:52:41;21.20;49.20
64888;DHT22;51386;53.082;8.816;2023-06-14T00:55:09;21.20;49.20
64888;DHT22;51386;53.082;8.816;2023-06-14T00:57:36;21.20;49.50
64888;DHT22;51386;53.082;8.816;2023-06-14T01:00:05;21.10;49.80
64888;DHT22;51386;53.082;8.816;2023-06-14T01:02:56;21.10;49.80
64888;DHT22;51386;53.082;8.816;2023-06-14T01:05:42;21.00;50.00
64888;DHT22;51386;53.082;8.816;2023-06-14T01:08:19;21.00;50.30
64888;DHT22;51386;53.082;8.816;2023-06-14T01:10:56;21.00;50.40
64888;DHT22;51386;53.082;8.816;2023-06-14T01:13:33;20.90;50.60
64888;DHT22;51386;53.082;8.816;2023-06-14T01:16:02;20.90;50.70
64888;DHT22;51386;53.082;8.816;2023-06-14T01:18:32;20.90;50.80
64888;DHT22;51386;53.082;8.816;2023-06-14T01:21:00;20.90;51.10
64888;DHT22;51386;53.082;8.816;2023-06-14T01:23:33;20.90;51.10
64888;DHT22;51386;53.082;8.816;2023-06-14T01:26:01;20.90;51.40
64888;DHT22;51386;53.082;8.816;2023-06-14T01:28:29;20.90;51.30
64888;DHT22;51386;53.082;8.816;2023-06-14T01:31:01;20.80;51.40
64888;DHT22;51386;53.082;8.816;2023-06-14T01:33:33;20.80;51.60
64888;DHT22;51386;53.082;8.816;2023-06-14T01:36:02;20.80;52.00
64888;DHT22;51386;53.082;8.816;2023-06-14T01:38:33;20.70;52.00
64888;DHT22;51386;53.082;8.816;2023-06-14T01:41:00;20.70;52.30
64888;DHT22;51386;53.082;8.816;2023-06-14T01:43:30;20.70;52.50
64888;DHT22;51386;53.082;8.816;2023-06-14T01:45:58;20.70;52.60
64888;DHT22;51386;53.082;8.816;2023-06-14T01:48:26;20.70;52.60
64888;DHT22;51386;53.082;8.816;2023-06-14T01:50:54;20.70;52.70
64888;DHT22;51386;53.082;8.816;2023-06-14T01:53:21;20.60;53.10
64888;DHT22;51386;53.082;8.816;2023-06-14T01:55:49;20.60;53.30
64888;DHT22;51386;53.082;8.816;2023-06-14T01:58:16;20.60;53.50
64888;DHT22;51386;53.082;8.816;2023-06-14T02:00:43;20.50;53.60
64888;DHT22;51386;53.082;8.816;2023-06-14T02:03:11;20.50;53.80
64888;DHT22;51386;53.082;8.816;2023-06-14T02:05:39;20.50;53.90
64888;DHT22;51386;53.082;8.816;2023-06-14T02:08:07;20.50;54.10
64888;DHT22;51386;53.082;8.816;2023-06-14T02:10:34;20.50;54.00
64888;DHT22;51386;53.082;8.816;2023-06-14T02:13:04;20.50;54.30
64888;DHT22;51386;53.082;8.816;2023-06-14T02:15:31;20.40;54.20
64888;DHT22;51386;53.082;8.816;2023-06-14T02:18:01;20.40;54.20
64888;DHT22;51386;53.082;8.816;2023-06-14T02:20:30;20.40;54.30
64888;DHT22;51386;53.082;8.816;2023-06-14T02:22:57;20.40;54.60
64888;DHT22;51386;53.082;8.816;2023-06-14T02:25:24;20.40;54.80
64888;DHT22;51386;53.082;8.816;2023-06-14T02:27:51;20.30;54.60
64888;DHT22;51386;53.082;8.816;2023-06-14T02:30:19;20.30;54.90
64888;DHT22;51386;53.082;8.816;2023-06-14T02:32:47;20.30;55.00
64888;DHT22;51386;53.082;8.816;2023-06-14T02:35:15;20.40;55.10
64888;DHT22;51386;53.082;8.816;2023-06-14T02:37:42;20.40;55.10
64888;DHT22;51386;53.082;8.816;2023-06-14T02:40:10;20.40;55.20
64888;DHT22;51386;53.082;8.816;2023-06-14T02:42:37;20.40;55.10
64888;DHT22;51386;53.082;8.816;2023-06-14T02:45:06;20.40;55.20
64888;DHT22;51386;53.082;8.816;2023-06-14T02:47:35;20.40;55.10
64888;DHT22;51386;53.082;8.816;2023-06-14T02:50:03;20.30;55.40
64888;DHT22;51386;53.082;8.816;2023-06-14T02:52:30;20.30;55.40
64888;DHT22;51386;53.082;8.816;2023-06-14T02:54:59;20.30;55.60
64888;DHT22;51386;53.082;8.816;2023-06-14T02:57:27;20.20;56.50
64888;DHT22;51386;53.082;8.816;2023-06-14T02:59:54;20.20;56.00
64888;DHT22;51386;53.082;8.816;2023-06-14T03:02:21;20.20;56.10
64888;DHT22;51386;53.082;8.816;2023-06-14T03:04:49;20.20;56.10
64888;DHT22;51386;53.082;8.816;2023-06-14T03:07:17;20.20;55.90
64888;DHT22;51386;53.082;8.816;2023-06-14T03:09:48;20.10;56.20
64888;DHT22;51386;53.082;8.816;2023-06-14T03:12:16;20.10;56.00
64888;DHT22;51386;53.082;8.816;2023-06-14T03:14:43;20.10;56.30
64888;DHT22;51386;53.082;8.816;2023-06-14T03:17:13;20.00;56.20
64888;DHT22;51386;53.082;8.816;2023-06-14T03:19:40;20.00;56.70
64888;DHT22;51386;53.082;8.816;2023-06-14T03:22:09;20.00;56.70
64888;DHT22;51386;53.082;8.816;2023-06-14T03:24:38;19.90;56.90
64888;DHT22;51386;53.082;8.816;2023-06-14T03:27:05;19.90;57.00
64888;DHT22;51386;53.082;8.816;2023-06-14T03:29:32;19.90;57.10
64888;DHT22;51386;53.082;8.816;2023-06-14T03:32:00;19.90;57.20
64888;DHT22;51386;53.082;8.816;2023-06-14T03:34:29;19.90;57.20
64888;DHT22;51386;53.082;8.816;2023-06-14T03:36:56;19.90;57.30
64888;DHT22;51386;53.082;8.816;2023-06-14T03:39:24;19.90;57.20
64888;DHT22;51386;53.082;8.816;2023-06-14T03:41:51;19.80;57.20
64888;DHT22;51386;53.082;8.816;2023-06-14T03:44:18;19.90;57.30
64888;DHT22;51386;53.082;8.816;2023-06-14T03:46:45;19.90;58.10
64888;DHT22;51386;53.082;8.816;2023-06-14T03:49:13;19.90;57.50
64888;DHT22;51386;53.082;8.816;2023-06-14T03:51:42;19.90;57.50
64888;DHT22;51386;53.082;8.816;2023-06-14T03:54:10;19.80;57.50
64888;DHT22;51386;53.082;8.816;2023-06-14T03:56:58;19.80;57.60
64888;DHT22;51386;53.082;8.816;2023-06-14T03:59:25;19.80;57.60
64888;DHT22;51386;53.082;8.816;2023-06-14T04:01:54;19.80;57.60
64888;DHT22;51386;53.082;8.816;2023-06-14T04:04:21;19.80;57.90
64888;DHT22;51386;53.082;8.816;2023-06-14T04:06:56;19.80;57.60
64888;DHT22;51386;53.082;8.816;2023-06-14T04:09:25;19.80;57.90
64888;DHT22;51386;53.082;8.816;2023-06-14T04:11:51;19.80;57.90
64888;DHT22;51386;53.082;8.816;2023-06-14T04:14:20;19.80;57.90
64888;DHT22;51386;53.082;8.816;2023-06-14T04:16:48;19.80;58.10
64888;DHT22;51386;53.082;8.816;2023-06-14T04:19:16;19.80;58.00
64888;DHT22;51386;53.082;8.816;2023-06-14T04:21:43;19.80;58.00
64888;DHT22;51386;53.082;8.816;2023-06-14T04:24:10;19.80;58.00
64888;DHT22;51386;53.082;8.816;2023-06-14T04:26:41;19.90;58.00
64888;DHT22;51386;53.082;8.816;2023-06-14T04:29:11;19.80;58.00
64888;DHT22;51386;53.082;8.816;2023-06-14T04:31:44;19.80;58.00
64888;DHT22;51386;53.082;8.816;2023-06-14T04:34:11;19.80;58.00
64888;DHT22;51386;53.082;8.816;2023-06-14T04:36:43;19.80;58.20
64888;DHT22;51386;53.082;8.816;2023-06-14T04:39:16;19.80;58.30
64888;DHT22;51386;53.082;8.816;2023-06-14T04:41:50;19.80;58.40
64888;DHT22;51386;53.082;8.816;2023-06-14T04:44:24;19.80;58.20
64888;DHT22;51386;53.082;8.816;2023-06-14T04:46:58;19.80;58.30
64888;DHT22;51386;53.082;8.816;2023-06-14T04:49:26;19.80;58.50
64888;DHT22;51386;53.082;8.816;2023-06-14T04:51:55;19.80;58.50
64888;DHT22;51386;53.082;8.816;2023-06-14T04:54:26;19.80;58.50
64888;DHT22;51386;53.082;8.816;2023-06-14T04:56:52;19.80;58.40
64888;DHT22;51386;53.082;8.816;2023-06-14T04:59:21;19.80;58.30
64888;DHT22;51386;53.082;8.816;2023-06-14T05:01:51;19.80;58.30
64888;DHT22;51386;53.082;8.816;2023-06-14T05:04:21;19.90;58.20
64888;DHT22;51386;53.082;8.816;2023-06-14T05:06:49;19.90;58.00
64888;DHT22;51386;53.082;8.816;2023-06-14T05:09:16;19.90;58.00
64888;DHT22;51386;53.082;8.816;2023-06-14T05:11:46;19.90;58.00
64888;DHT22;51386;53.082;8.816;2023-06-14T05:14:14;19.90;57.80
64888;DHT22;51386;53.082;8.816;2023-06-14T05:16:41;20.00;57.80
64888;DHT22;51386;53.082;8.816;2023-06-14T05:19:09;20.00;57.90
64888;DHT22;51386;53.082;8.816;2023-06-14T05:21:38;20.00;57.80
64888;DHT22;51386;53.082;8.816;2023-06-14T05:24:09;20.00;57.80
64888;DHT22;51386;53.082;8.816;2023-06-14T05:26:36;20.10;57.90
64888;DHT22;51386;53.082;8.816;2023-06-14T05:29:03;20.10;58.00
64888;DHT22;51386;53.082;8.816;2023-06-14T05:31:30;20.10;57.90
64888;DHT22;51386;53.082;8.816;2023-06-14T05:33:58;20.10;58.10
64888;DHT22;51386;53.082;8.816;2023-06-14T05:36:25;20.10;58.00
64888;DHT22;51386;53.082;8.816;2023-06-14T05:38:55;20.10;58.10
64888;DHT22;51386;53.082;8.816;2023-06-14T05:41:24;20.20;58.10
64888;DHT22;51386;53.082;8.816;2023-06-14T05:43:53;20.20;58.00
64888;DHT22;51386;53.082;8.816;2023-06-14T05:46:21;20.20;58.00
64888;DHT22;51386;53.082;8.816;2023-06-14T05:48:51;20.20;58.00
64888;DHT22;51386;53.082;8.816;2023-06-14T05:51:18;20.30;58.00
64888;DHT22;51386;53.082;8.816;2023-06-14T05:53:45;20.30;57.80
64888;DHT22;51386;53.082;8.816;2023-06-14T05:56:15;20.40;57.60
64888;DHT22;51386;53.082;8.816;2023-06-14T05:58:44;20.50;57.50
64888;DHT22;51386;53.082;8.816;2023-06-14T06:01:13;20.50;57.50
64888;DHT22;51386;53.082;8.816;2023-06-14T06:03:40;20.50;57.50
64888;DHT22;51386;53.082;8.816;2023-06-14T06:06:08;20.60;57.30
64888;DHT22;51386;53.082;8.816;2023-06-14T06:08:35;20.60;57.00
64888;DHT22;51386;53.082;8.816;2023-06-14T06:11:02;20.70;56.90
64888;DHT22;51386;53.082;8.816;2023-06-14T06:13:30;20.70;56.50
64888;DHT22;51386;53.082;8.816;2023-06-14T06:15:57;20.80;56.30
64888;DHT22;51386;53.082;8.816;2023-06-14T06:18:24;20.80;56.10
64888;DHT22;51386;53.082;8.816;2023-06-14T06:20:51;20.90;56.00
64888;DHT22;51386;53.082;8.816;2023-06-14T06:23:18;21.00;55.60
64888;DHT22;51386;53.082;8.816;2023-06-14T06:25:45;21.00;54.90
64888;DHT22;51386;53.082;8.816;2023-06-14T06:28:12;21.10;54.90
64888;DHT22;51386;53.082;8.816;2023-06-14T06:30:41;21.10;54.80
64888;DHT22;51386;53.082;8.816;2023-06-14T06:33:08;21.20;54.60
64888;DHT22;51386;53.082;8.816;2023-06-14T06:35:35;21.30;54.60
64888;DHT22;51386;53.082;8.816;2023-06-14T06:38:02;21.30;54.40
64888;DHT22;51386;53.082;8.816;2023-06-14T06:40:29;21.40;54.30
64888;DHT22;51386;53.082;8.816;2023-06-14T06:42:56;21.40;54.10
64888;DHT22;51386;53.082;8.816;2023-06-14T06:45:23;21.40;53.70
64888;DHT22;51386;53.082;8.816;2023-06-14T06:47:53;21.50;53.60
64888;DHT22;51386;53.082;8.816;2023-06-14T06:50:20;21.60;53.30
64888;DHT22;51386;53.082;8.816;2023-06-14T06:52:49;21.70;53.20
64888;DHT22;51386;53.082;8.816;2023-06-14T06:55:16;21.80;53.00
64888;DHT22;51386;53.082;8.816;2023-06-14T06:57:44;21.90;52.90
64888;DHT22;51386;53.082;8.816;2023-06-14T07:00:11;22.00;52.60
64888;DHT22;51386;53.082;8.816;2023-06-14T07:02:40;22.00;52.20
64888;DHT22;51386;53.082;8.816;2023-06-14T07:05:08;22.10;52.00
64888;DHT22;51386;53.082;8.816;2023-06-14T07:07:35;22.20;51.70
64888;DHT22;51386;53.082;8.816;2023-06-14T07:10:03;22.20;51.00
64888;DHT22;51386;53.082;8.816;2023-06-14T07:12:31;22.30;50.80
64888;DHT22;51386;53.082;8.816;2023-06-14T07:15:00;22.30;49.70
64888;DHT22;51386;53.082;8.816;2023-06-14T07:17:27;22.50;49.10
64888;DHT22;51386;53.082;8.816;2023-06-14T07:19:54;22.50;48.40
64888;DHT22;51386;53.082;8.816;2023-06-14T07:22:23;22.60;47.70
64888;DHT22;51386;53.082;8.816;2023-06-14T07:24:50;22.70;47.70
64888;DHT22;51386;53.082;8.816;2023-06-14T07:27:16;22.70;47.30
64888;DHT22;51386;53.082;8.816;2023-06-14T07:29:43;22.80;46.10
64888;DHT22;51386;53.082;8.816;2023-06-14T07:32:10;22.90;46.20
64888;DHT22;51386;53.082;8.816;2023-06-14T07:34:37;22.90;46.40
64888;DHT22;51386;53.082;8.816;2023-06-14T07:37:04;23.00;46.60
64888;DHT22;51386;53.082;8.816;2023-06-14T07:39:33;23.00;46.60
64888;DHT22;51386;53.082;8.816;2023-06-14T07:41:59;23.10;46.40
64888;DHT22;51386;53.082;8.816;2023-06-14T07:44:29;23.20;46.50
64888;DHT22;51386;53.082;8.816;2023-06-14T07:46:59;23.30;46.30
64888;DHT22;51386;53.082;8.816;2023-06-14T07:49:27;23.40;46.30
64888;DHT22;51386;53.082;8.816;2023-06-14T07:51:54;23.50;46.10
64888;DHT22;51386;53.082;8.816;2023-06-14T07:54:21;23.50;45.40
64888;DHT22;51386;53.082;8.816;2023-06-14T07:56:54;23.60;45.00
64888;DHT22;51386;53.082;8.816;2023-06-14T07:59:22;23.60;44.60
64888;DHT22;51386;53.082;8.816;2023-06-14T08:01:49;23.70;44.30
64888;DHT22;51386;53.082;8.816;2023-06-14T08:04:16;23.70;43.70
64888;DHT22;51386;53.082;8.816;2023-06-14T08:06:43;23.70;43.20
64888;DHT22;51386;53.082;8.816;2023-06-14T08:09:15;23.80;43.10
64888;DHT22;51386;53.082;8.816;2023-06-14T08:11:42;23.80;43.40
64888;DHT22;51386;53.082;8.816;2023-06-14T08:14:10;23.80;43.10
64888;DHT22;51386;53.082;8.816;2023-06-14T08:16:38;23.90;42.70
64888;DHT22;51386;53.082;8.816;2023-06-14T08:19:05;23.90;42.80
64888;DHT22;51386;53.082;8.816;2023-06-14T08:21:32;24.10;42.50
64888;DHT22;51386;53.082;8.816;2023-06-14T08:24:00;24.50;42.00
64888;DHT22;51386;53.082;8.816;2023-06-14T08:26:27;25.10;41.20
64888;DHT22;51386;53.082;8.816;2023-06-14T08:28:55;25.80;40.20
64888;DHT22;51386;53.082;8.816;2023-06-14T08:31:24;26.60;37.30
64888;DHT22;51386;53.082;8.816;2023-06-14T08:33:54;27.40;36.10
64888;DHT22;51386;53.082;8.816;2023-06-14T08:36:21;28.10;34.20
64888;DHT22;51386;53.082;8.816;2023-06-14T08:38:49;28.80;33.00
64888;DHT22;51386;53.082;8.816;2023-06-14T08:41:21;29.50;31.80
64888;DHT22;51386;53.082;8.816;2023-06-14T08:43:52;30.10;31.00
64888;DHT22;51386;53.082;8.816;2023-06-14T08:46:19;30.70;30.10
64888;DHT22;51386;53.082;8.816;2023-06-14T08:48:49;31.20;29.70
64888;DHT22;51386;53.082;8.816;2023-06-14T08:51:19;31.80;29.50
64888;DHT22;51386;53.082;8.816;2023-06-14T08:53:52;32.40;28.10
64888;DHT22;51386;53.082;8.816;2023-06-14T08:56:25;32.90;27.10
64888;DHT22;51386;53.082;8.816;2023-06-14T08:58:55;33.30;26.90
64888;DHT22;51386;53.082;8.816;2023-06-14T09:01:23;33.50;26.60
64888;DHT22;51386;53.082;8.816;2023-06-14T09:03:52;33.90;26.30
64888;DHT22;51386;53.082;8.816;2023-06-14T09:06:21;34.20;25.90
64888;DHT22;51386;53.082;8.816;2023-06-14T09:08:49;34.50;25.30
64888;DHT22;51386;53.082;8.816;2023-06-14T09:11:18;34.80;24.50
64888;DHT22;51386;53.082;8.816;2023-06-14T09:13:46;34.90;24.20
64888;DHT22;51386;53.082;8.816;2023-06-14T09:16:13;35.00;24.10
64888;DHT22;51386;53.082;8.816;2023-06-14T09:18:41;35.10;23.80
64888;DHT22;51386;53.082;8.816;2023-06-14T09:21:16;35.20;23.80
64888;DHT22;51386;53.082;8.816;2023-06-14T09:23:45;35.40;23.80
64888;DHT22;51386;53.082;8.816;2023-06-14T09:26:15;35.40;23.40
64888;DHT22;51386;53.082;8.816;2023-06-14T09:28:44;35.60;23.50
64888;DHT22;51386;53.082;8.816;2023-06-14T09:31:13;35.80;23.70
64888;DHT22;51386;53.082;8.816;2023-06-14T09:33:42;36.00;22.70
64888;DHT22;51386;53.082;8.816;2023-06-14T09:36:16;36.10;22.80
64888;DHT22;51386;53.082;8.816;2023-06-14T09:38:52;36.20;22.60
64888;DHT22;51386;53.082;8.816;2023-06-14T09:41:20;36.30;22.50
64888;DHT22;51386;53.082;8.816;2023-06-14T09:43:47;36.20;22.00
64888;DHT22;51386;53.082;8.816;2023-06-14T09:46:16;36.30;22.40
64888;DHT22;51386;53.082;8.816;2023-06-14T09:48:45;36.30;22.30
64888;DHT22;51386;53.082;8.816;2023-06-14T09:51:14;36.50;22.40
64888;DHT22;51386;53.082;8.816;2023-06-14T09:53:47;36.50;22.30
64888;DHT22;51386;53.082;8.816;2023-06-14T09:56:20;36.60;22.10
64888;DHT22;51386;53.082;8.816;2023-06-14T09:58:54;36.70;21.80
64888;DHT22;51386;53.082;8.816;2023-06-14T10:01:34;36.60;21.80
64888;DHT22;51386;53.082;8.816;2023-06-14T10:04:04;36.50;21.90
64888;DHT22;51386;53.082;8.816;2023-06-14T10:06:39;36.40;21.80
64888;DHT22;51386;53.082;8.816;2023-06-14T10:09:09;36.50;22.30
64888;DHT22;51386;53.082;8.816;2023-06-14T10:11:38;36.50;22.30
64888;DHT22;51386;53.082;8.816;2023-06-14T10:14:12;36.60;22.00
64888;DHT22;51386;53.082;8.816;2023-06-14T10:16:47;36.70;22.10
64888;DHT22;51386;53.082;8.816;2023-06-14T10:19:22;36.80;21.90
64888;DHT22;51386;53.082;8.816;2023-06-14T10:22:00;36.70;21.60
64888;DHT22;51386;53.082;8.816;2023-06-14T10:24:32;36.70;21.80
64888;DHT22;51386;53.082;8.816;2023-06-14T10:27:07;36.60;21.70
64888;DHT22;51386;53.082;8.816;2023-06-14T10:30:02;36.50;22.00
64888;DHT22;51386;53.082;8.816;2023-06-14T10:32:32;36.30;22.10
64888;DHT22;51386;53.082;8.816;2023-06-14T10:35:00;36.00;22.20
64888;DHT22;51386;53.082;8.816;2023-06-14T10:37:29;35.70;22.50
64888;DHT22;51386;53.082;8.816;2023-06-14T10:39:56;35.30;22.90
64888;DHT22;51386;53.082;8.816;2023-06-14T10:42:28;34.80;23.30
64888;DHT22;51386;53.082;8.816;2023-06-14T10:44:59;34.30;23.60
64888;DHT22;51386;53.082;8.816;2023-06-14T10:47:29;33.80;24.20
64888;DHT22;51386;53.082;8.816;2023-06-14T10:50:03;33.30;25.00
64888;DHT22;51386;53.082;8.816;2023-06-14T10:52:36;32.90;25.50
64888;DHT22;51386;53.082;8.816;2023-06-14T10:55:07;32.50;25.70
64888;DHT22;51386;53.082;8.816;2023-06-14T10:57:37;32.20;26.20
64888;DHT22;51386;53.082;8.816;2023-06-14T11:00:18;31.90;26.50
64888;DHT22;51386;53.082;8.816;2023-06-14T11:03:00;31.60;26.80
64888;DHT22;51386;53.082;8.816;2023-06-14T11:05:49;31.40;27.20
64888;DHT22;51386;53.082;8.816;2023-06-14T11:08:40;31.20;27.20
64888;DHT22;51386;53.082;8.816;2023-06-14T11:11:38;31.10;27.50
64888;DHT22;51386;53.082;8.816;2023-06-14T11:14:08;30.90;27.20
64888;DHT22;51386;53.082;8.816;2023-06-14T11:16:37;30.80;27.20
64888;DHT22;51386;53.082;8.816;2023-06-14T11:19:04;30.70;27.40
64888;DHT22;51386;53.082;8.816;2023-06-14T11:21:32;30.40;27.20
64888;DHT22;51386;53.082;8.816;2023-06-14T11:24:01;30.30;27.40
64888;DHT22;51386;53.082;8.816;2023-06-14T11:26:30;30.20;27.60
64888;DHT22;51386;53.082;8.816;2023-06-14T11:29:01;30.10;27.70
64888;DHT22;51386;53.082;8.816;2023-06-14T11:31:28;30.00;27.90
64888;DHT22;51386;53.082;8.816;2023-06-14T11:33:57;29.80;27.70
64888;DHT22;51386;53.082;8.816;2023-06-14T11:36:26;29.80;27.80
64888;DHT22;51386;53.082;8.816;2023-06-14T11:39:02;29.60;27.60
64888;DHT22;51386;53.082;8.816;2023-06-14T11:41:36;29.50;28.00
64888;DHT22;51386;53.082;8.816;2023-06-14T11:44:04;29.40;28.70
64888;DHT22;51386;53.082;8.816;2023-06-14T11:46:32;29.40;29.30
64888;DHT22;51386;53.082;8.816;2023-06-14T11:49:00;29.40;29.30
64888;DHT22;51386;53.082;8.816;2023-06-14T11:51:30;29.50;29.40
64888;DHT22;51386;53.082;8.816;2023-06-14T11:53:57;29.50;29.30
64888;DHT22;51386;53.082;8.816;2023-06-14T11:56:26;29.50;29.10
64888;DHT22;51386;53.082;8.816;2023-06-14T11:58:53;29.50;29.10
64888;DHT22;51386;53.082;8.816;2023-06-14T12:01:23;29.40;29.20
64888;DHT22;51386;53.082;8.816;2023-06-14T12:03:54;29.40;29.20
64888;DHT22;51386;53.082;8.816;2023-06-14T12:06:28;29.40;29.20
64888;DHT22;51386;53.082;8.816;2023-06-14T12:09:02;29.40;29.30
64888;DHT22;51386;53.082;8.816;2023-06-14T12:11:35;29.40;29.40
64888;DHT22;51386;53.082;8.816;2023-06-14T12:14:03;29.40;29.50
64888;DHT22;51386;53.082;8.816;2023-06-14T12:16:32;29.40;29.40
64888;DHT22;51386;53.082;8.816;2023-06-14T12:19:11;29.40;29.20
64888;DHT22;51386;53.082;8.816;2023-06-14T12:21:39;29.40;29.20
64888;DHT22;51386;53.082;8.816;2023-06-14T12:24:08;29.40;29.30
64888;DHT22;51386;53.082;8.816;2023-06-14T12:26:40;29.40;29.20
64888;DHT22;51386;53.082;8.816;2023-06-14T12:29:08;29.30;29.40
64888;DHT22;51386;53.082;8.816;2023-06-14T12:31:37;29.30;29.20
64888;DHT22;51386;53.082;8.816;2023-06-14T12:34:04;29.30;29.20
64888;DHT22;51386;53.082;8.816;2023-06-14T12:36:31;29.20;29.50
64888;DHT22;51386;53.082;8.816;2023-06-14T12:38:59;29.20;29.70
64888;DHT22;51386;53.082;8.816;2023-06-14T12:41:26;29.30;29.80
64888;DHT22;51386;53.082;8.816;2023-06-14T12:43:55;29.30;29.90
64888;DHT22;51386;53.082;8.816;2023-06-14T12:46:24;29.30;29.80
64888;DHT22;51386;53.082;8.816;2023-06-14T12:48:52;29.30;29.60
64888;DHT22;51386;53.082;8.816;2023-06-14T12:51:19;29.30;29.60
64888;DHT22;51386;53.082;8.816;2023-06-14T12:53:46;29.30;29.70
64888;DHT22;51386;53.082;8.816;2023-06-14T12:56:13;29.20;29.60
64888;DHT22;51386;53.082;8.816;2023-06-14T12:58:40;29.20;29.70
64888;DHT22;51386;53.082;8.816;2023-06-14T13:01:08;29.10;29.80
64888;DHT22;51386;53.082;8.816;2023-06-14T13:03:35;29.00;29.90
64888;DHT22;51386;53.082;8.816;2023-06-14T13:06:02;29.00;30.00
64888;DHT22;51386;53.082;8.816;2023-06-14T13:08:30;28.90;30.00
64888;DHT22;51386;53.082;8.816;2023-06-14T13:10:57;28.80;30.00
64888;DHT22;51386;53.082;8.816;2023-06-14T13:13:24;28.80;30.20
64888;DHT22;51386;53.082;8.816;2023-06-14T13:15:51;28.70;30.00
64888;DHT22;51386;53.082;8.816;2023-06-14T13:18:20;28.70;30.20
64888;DHT22;51386;53.082;8.816;2023-06-14T13:20:47;28.60;30.30
64888;DHT22;51386;53.082;8.816;2023-06-14T13:23:16;28.60;30.40
64888;DHT22;51386;53.082;8.816;2023-06-14T13:25:43;28.70;30.50
64888;DHT22;51386;53.082;8.816;2023-06-14T13:28:10;28.70;30.30
64888;DHT22;51386;53.082;8.816;2023-06-14T13:30:37;28.80;30.00
64888;DHT22;51386;53.082;8.816;2023-06-14T13:33:04;28.80;30.50
64888;DHT22;51386;53.082;8.816;2023-06-14T13:35:33;28.80;30.30
64888;DHT22;51386;53.082;8.816;2023-06-14T13:38:00;28.80;30.30
64888;DHT22;51386;53.082;8.816;2023-06-14T13:40:27;28.80;29.70
64888;DHT22;51386;53.082;8.816;2023-06-14T13:42:54;28.90;29.40
64888;DHT22;51386;53.082;8.816;2023-06-14T13:45:21;28.90;29.40
64888;DHT22;51386;53.082;8.816;2023-06-14T13:47:48;28.90;29.30
64888;DHT22;51386;53.082;8.816;2023-06-14T13:50:15;29.00;29.60
64888;DHT22;51386;53.082;8.816;2023-06-14T13:52:44;29.10;29.50
64888;DHT22;51386;53.082;8.816;2023-06-14T13:55:11;29.20;29.70
64888;DHT22;51386;53.082;8.816;2023-06-14T13:57:39;29.30;29.80
64888;DHT22;51386;53.082;8.816;2023-06-14T14:00:07;29.30;29.90
64888;DHT22;51386;53.082;8.816;2023-06-14T14:02:35;29.30;30.30
64888;DHT22;51386;53.082;8.816;2023-06-14T14:05:02;29.30;29.60
64888;DHT22;51386;53.082;8.816;2023-06-14T14:07:29;29.30;29.50
64888;DHT22;51386;53.082;8.816;2023-06-14T14:09:58;29.20;29.50
64888;DHT22;51386;53.082;8.816;2023-06-14T14:12:25;29.10;29.50
64888;DHT22;51386;53.082;8.816;2023-06-14T14:14:52;29.00;29.60
64888;DHT22;51386;53.082;8.816;2023-06-14T14:17:19;28.90;29.60
64888;DHT22;51386;53.082;8.816;2023-06-14T14:19:46;28.80;29.80
64888;DHT22;51386;53.082;8.816;2023-06-14T14:22:13;28.70;30.00
64888;DHT22;51386;53.082;8.816;2023-06-14T14:24:40;28.70;30.40
64888;DHT22;51386;53.082;8.816;2023-06-14T14:27:08;28.70;30.50
64888;DHT22;51386;53.082;8.816;2023-06-14T14:29:36;28.80;30.30
64888;DHT22;51386;53.082;8.816;2023-06-14T14:32:04;28.90;30.20
64888;DHT22;51386;53.082;8.816;2023-06-14T14:34:32;29.00;29.80
64888;DHT22;51386;53.082;8.816;2023-06-14T14:37:05;29.10;29.70
64888;DHT22;51386;53.082;8.816;2023-06-14T14:39:32;29.20;29.60
64888;DHT22;51386;53.082;8.816;2023-06-14T14:41:59;29.20;29.40
64888;DHT22;51386;53.082;8.816;2023-06-14T14:44:28;29.20;29.70
64888;DHT22;51386;53.082;8.816;2023-06-14T14:46:55;29.20;29.90
64888;DHT22;51386;53.082;8.816;2023-06-14T14:49:22;29.20;29.90
64888;DHT22;51386;53.082;8.816;2023-06-14T14:51:49;29.10;29.80
64888;DHT22;51386;53.082;8.816;2023-06-14T14:54:16;29.10;29.70
64888;DHT22;51386;53.082;8.816;2023-06-14T14:56:43;29.00;29.50
64888;DHT22;51386;53.082;8.816;2023-06-14T14:59:10;28.90;29.40
64888;DHT22;51386;53.082;8.816;2023-06-14T15:01:38;28.90;29.60
64888;DHT22;51386;53.082;8.816;2023-06-14T15:04:05;28.90;29.50
64888;DHT22;51386;53.082;8.816;2023-06-14T15:06:32;28.80;29.50
64888;DHT22;51386;53.082;8.816;2023-06-14T15:09:05;28.70;29.50
64888;DHT22;51386;53.082;8.816;2023-06-14T15:11:32;28.70;29.50
64888;DHT22;51386;53.082;8.816;2023-06-14T15:13:59;28.70;29.60
64888;DHT22;51386;53.082;8.816;2023-06-14T15:16:27;28.60;29.60
64888;DHT22;51386;53.082;8.816;2023-06-14T15:18:55;28.60;29.80
64888;DHT22;51386;53.082;8.816;2023-06-14T15:21:22;28.70;30.10
64888;DHT22;51386;53.082;8.816;2023-06-14T15:23:49;28.80;30.40
64888;DHT22;51386;53.082;8.816;2023-06-14T15:26:17;28.90;30.40
64888;DHT22;51386;53.082;8.816;2023-06-14T15:28:44;29.00;30.00
64888;DHT22;51386;53.082;8.816;2023-06-14T15:31:11;29.20;29.80
64888;DHT22;51386;53.082;8.816;2023-06-14T15:33:38;29.30;29.80
64888;DHT22;51386;53.082;8.816;2023-06-14T15:36:07;29.40;29.70
64888;DHT22;51386;53.082;8.816;2023-06-14T15:38:36;29.50;29.70
64888;DHT22;51386;53.082;8.816;2023-06-14T15:41:03;29.60;29.80